sensor_id;sensor_type;location;lat;lon;timestamp;P1;durP1;ratioP1;P2;durP2;ratioP2
64816;SDS011;69411;45.656;11.740;2023-05-10T00:00:28;5.35;;;2.90;;
64816;SDS011;69411;45.656;11.740;2023-05-10T00:02:54;4.38;;;2.58;;
64816;SDS011;69411;45.656;11.740;2023-05-10T00:05:19;4.07;;;2.90;;
64816;SDS011;69411;45.656;11.740;2023-05-10T00:07:45;3.38;;;2.50;;
64816;SDS011;69411;45.656;11.740;2023-05-10T00:10:11;3.20;;;2.47;;
64816;SDS011;69411;45.656;11.740;2023-05-10T00:12:37;3.30;;;2.70;;
64816;SDS011;69411;45.656;11.740;2023-05-10T00:15:04;3.10;;;2.38;;
64816;SDS011;69411;45.656;11.740;2023-05-10T00:17:30;3.45;;;2.60;;
64816;SDS011;69411;45.656;11.740;2023-05-10T00:19:56;6.18;;;3.10;;
64816;SDS011;69411;45.656;11.740;2023-05-10T00:22:22;4.20;;;2.88;;
64816;SDS011;69411;45.656;11.740;2023-05-10T00:24:48;3.65;;;3.00;;
64816;SDS011;69411;45.656;11.740;2023-05-10T00:27:14;3.67;;;2.78;;
64816;SDS011;69411;45.656;11.740;2023-05-10T00:29:40;4.45;;;2.58;;
64816;SDS011;69411;45.656;11.740;2023-05-10T00:32:06;3.13;;;2.30;;
64816;SDS011;69411;45.656;11.740;2023-05-10T00:34:32;3.97;;;2.60;;
64816;SDS011;69411;45.656;11.740;2023-05-10T00:36:58;3.17;;;2.65;;
64816;SDS011;69411;45.656;11.740;2023-05-10T00:39:24;4.88;;;2.80;;
64816;SDS011;69411;45.656;11.740;2023-05-10T00:41:51;4.07;;;3.10;;
64816;SDS011;69411;45.656;11.740;2023-05-10T00:44:17;4.35;;;2.88;;
64816;SDS011;69411;45.656;11.740;2023-05-10T00:46:43;4.55;;;3.25;;
64816;SDS011;69411;45.656;11.740;2023-05-10T00:49:10;3.55;;;2.47;;
64816;SDS011;69411;45.656;11.740;2023-05-10T00:51:36;4.47;;;2.92;;
64816;SDS011;69411;45.656;11.740;2023-05-10T00:54:02;4.70;;;3.00;;
64816;SDS011;69411;45.656;11.740;2023-05-10T00:56:28;4.30;;;3.40;;
64816;SDS011;69411;45.656;11.740;2023-05-10T00:58:55;6.82;;;3.28;;
64816;SDS011;69411;45.656;11.740;2023-05-10T01:01:21;4.75;;;3.05;;
64816;SDS011;69411;45.656;11.740;2023-05-10T01:03:48;5.22;;;2.83;;
64816;SDS011;69411;45.656;11.740;2023-05-10T01:06:14;7.47;;;3.50;;
64816;SDS011;69411;45.656;11.740;2023-05-10T01:08:39;4.32;;;3.20;;
64816;SDS011;69411;45.656;11.740;2023-05-10T01:11:06;5.07;;;3.33;;
64816;SDS011;69411;45.656;11.740;2023-05-10T01:16:02;6.03;;;3.60;;
64816;SDS011;69411;45.656;11.740;2023-05-10T01:18:35;6.10;;;3.45;;
64816;SDS011;69411;45.656;11.740;2023-05-10T01:38:17;5.18;;;3.60;;
64816;SDS011;69411;45.656;11.740;2023-05-10T01:41:15;5.65;;;3.85;;
64816;SDS011;69411;45.656;11.740;2023-05-10T01:43:48;6.35;;;3.50;;
64816;SDS011;69411;45.656;11.740;2023-05-10T01:46:53;7.10;;;4.05;;
64816;SDS011;69411;45.656;11.740;2023-05-10T01:49:31;7.10;;;3.95;;
64816;SDS011;69411;45.656;11.740;2023-05-10T01:52:04;4.78;;;3.60;;
64816;SDS011;69411;45.656;11.740;2023-05-10T01:54:34;5.32;;;3.30;;
64816;SDS011;69411;45.656;11.740;2023-05-10T01:57:05;5.68;;;3.42;;
64816;SDS011;69411;45.656;11.740;2023-05-10T01:59:34;4.68;;;3.20;;
64816;SDS011;69411;45.656;11.740;2023-05-10T02:02:04;6.07;;;3.35;;
64816;SDS011;69411;45.656;11.740;2023-05-10T02:04:32;5.75;;;3.47;;
64816;SDS011;69411;45.656;11.740;2023-05-10T02:07:03;5.55;;;3.50;;
64816;SDS011;69411;45.656;11.740;2023-05-10T02:09:30;6.43;;;4.00;;
64816;SDS011;69411;45.656;11.740;2023-05-10T02:11:59;5.78;;;4.07;;
64816;SDS011;69411;45.656;11.740;2023-05-10T02:14:28;5.53;;;3.83;;
64816;SDS011;69411;45.656;11.740;2023-05-10T02:16:58;5.40;;;3.30;;
64816;SDS011;69411;45.656;11.740;2023-05-10T02:19:25;6.15;;;4.03;;
64816;SDS011;69411;45.656;11.740;2023-05-10T02:21:53;9.05;;;3.83;;
64816;SDS011;69411;45.656;11.740;2023-05-10T02:24:20;7.18;;;3.70;;
64816;SDS011;69411;45.656;11.740;2023-05-10T02:26:47;4.82;;;3.63;;
64816;SDS011;69411;45.656;11.740;2023-05-10T02:29:16;6.25;;;3.53;;
64816;SDS011;69411;45.656;11.740;2023-05-10T02:31:44;5.43;;;3.80;;
64816;SDS011;69411;45.656;11.740;2023-05-10T02:34:10;6.40;;;3.45;;
64816;SDS011;69411;45.656;11.740;2023-05-10T02:36:38;4.13;;;3.40;;
64816;SDS011;69411;45.656;11.740;2023-05-10T02:39:05;5.15;;;3.08;;
64816;SDS011;69411;45.656;11.740;2023-05-10T02:41:35;6.90;;;3.65;;
64816;SDS011;69411;45.656;11.740;2023-05-10T02:44:02;4.43;;;3.00;;
64816;SDS011;69411;45.656;11.740;2023-05-10T02:46:31;5.28;;;3.40;;
64816;SDS011;69411;45.656;11.740;2023-05-10T02:48:57;3.92;;;2.83;;
64816;SDS011;69411;45.656;11.740;2023-05-10T02:51:28;4.55;;;3.17;;
64816;SDS011;69411;45.656;11.740;2023-05-10T02:56:28;3.88;;;3.10;;
64816;SDS011;69411;45.656;11.740;2023-05-10T02:58:58;6.77;;;3.20;;
64816;SDS011;69411;45.656;11.740;2023-05-10T03:01:24;5.10;;;3.08;;
64816;SDS011;69411;45.656;11.740;2023-05-10T03:03:50;5.38;;;3.60;;
64816;SDS011;69411;45.656;11.740;2023-05-10T03:06:16;6.35;;;3.63;;
64816;SDS011;69411;45.656;11.740;2023-05-10T03:08:42;6.10;;;3.90;;
64816;SDS011;69411;45.656;11.740;2023-05-10T03:11:14;5.40;;;3.40;;
64816;SDS011;69411;45.656;11.740;2023-05-10T03:13:54;6.95;;;3.90;;
64816;SDS011;69411;45.656;11.740;2023-05-10T03:16:35;6.63;;;3.38;;
64816;SDS011;69411;45.656;11.740;2023-05-10T03:19:40;6.07;;;3.45;;
64816;SDS011;69411;45.656;11.740;2023-05-10T03:22:21;6.20;;;3.75;;
64816;SDS011;69411;45.656;11.740;2023-05-10T03:24:56;5.10;;;3.00;;
64816;SDS011;69411;45.656;11.740;2023-05-10T03:27:23;5.70;;;3.58;;
64816;SDS011;69411;45.656;11.740;2023-05-10T03:29:52;5.85;;;3.60;;
64816;SDS011;69411;45.656;11.740;2023-05-10T03:32:20;6.68;;;3.17;;
64816;SDS011;69411;45.656;11.740;2023-05-10T03:34:46;5.30;;;3.47;;
64816;SDS011;69411;45.656;11.740;2023-05-10T03:37:12;4.32;;;3.03;;
64816;SDS011;69411;45.656;11.740;2023-05-10T03:39:37;5.95;;;3.80;;
64816;SDS011;69411;45.656;11.740;2023-05-10T03:42:03;5.10;;;3.72;;
64816;SDS011;69411;45.656;11.740;2023-05-10T03:44:30;4.00;;;3.10;;
64816;SDS011;69411;45.656;11.740;2023-05-10T03:46:58;5.20;;;3.15;;
64816;SDS011;69411;45.656;11.740;2023-05-10T03:49:24;4.40;;;3.10;;
64816;SDS011;69411;45.656;11.740;2023-05-10T03:51:50;4.50;;;3.35;;
64816;SDS011;69411;45.656;11.740;2023-05-10T03:54:17;4.80;;;3.20;;
64816;SDS011;69411;45.656;11.740;2023-05-10T03:56:43;5.22;;;3.50;;
64816;SDS011;69411;45.656;11.740;2023-05-10T03:59:09;4.90;;;2.92;;
64816;SDS011;69411;45.656;11.740;2023-05-10T04:01:34;3.88;;;2.92;;
64816;SDS011;69411;45.656;11.740;2023-05-10T04:04:00;5.57;;;3.47;;
64816;SDS011;69411;45.656;11.740;2023-05-10T04:06:26;4.93;;;3.03;;
64816;SDS011;69411;45.656;11.740;2023-05-10T04:08:52;4.93;;;3.17;;
64816;SDS011;69411;45.656;11.740;2023-05-10T04:11:18;6.15;;;3.60;;
64816;SDS011;69411;45.656;11.740;2023-05-10T04:13:47;4.38;;;3.00;;
64816;SDS011;69411;45.656;11.740;2023-05-10T04:16:12;5.05;;;3.30;;
64816;SDS011;69411;45.656;11.740;2023-05-10T04:18:38;5.88;;;3.53;;
64816;SDS011;69411;45.656;11.740;2023-05-10T04:21:10;5.45;;;3.30;;
64816;SDS011;69411;45.656;11.740;2023-05-10T04:23:37;5.68;;;3.30;;
64816;SDS011;69411;45.656;11.740;2023-05-10T04:26:03;5.28;;;3.28;;
64816;SDS011;69411;45.656;11.740;2023-05-10T04:28:30;4.43;;;3.30;;
64816;SDS011;69411;45.656;11.740;2023-05-10T04:31:05;5.13;;;2.83;;
64816;SDS011;69411;45.656;11.740;2023-05-10T04:33:32;3.70;;;2.72;;
64816;SDS011;69411;45.656;11.740;2023-05-10T04:35:59;4.85;;;2.75;;
64816;SDS011;69411;45.656;11.740;2023-05-10T04:38:25;4.00;;;2.92;;
64816;SDS011;69411;45.656;11.740;2023-05-10T04:40:52;5.00;;;3.50;;
64816;SDS011;69411;45.656;11.740;2023-05-10T04:43:18;6.30;;;3.13;;
64816;SDS011;69411;45.656;11.740;2023-05-10T04:45:44;5.13;;;3.13;;
64816;SDS011;69411;45.656;11.740;2023-05-10T04:48:10;5.85;;;3.38;;
64816;SDS011;69411;45.656;11.740;2023-05-10T04:50:36;6.20;;;3.40;;
64816;SDS011;69411;45.656;11.740;2023-05-10T04:53:02;5.18;;;3.20;;
64816;SDS011;69411;45.656;11.740;2023-05-10T04:55:28;5.35;;;3.03;;
64816;SDS011;69411;45.656;11.740;2023-05-10T04:57:54;5.43;;;3.30;;
64816;SDS011;69411;45.656;11.740;2023-05-10T05:00:22;4.85;;;3.13;;
64816;SDS011;69411;45.656;11.740;2023-05-10T05:02:48;5.40;;;3.53;;
64816;SDS011;69411;45.656;11.740;2023-05-10T05:05:14;4.78;;;3.30;;
64816;SDS011;69411;45.656;11.740;2023-05-10T05:07:41;6.35;;;3.35;;
64816;SDS011;69411;45.656;11.740;2023-05-10T05:10:07;5.97;;;3.17;;
64816;SDS011;69411;45.656;11.740;2023-05-10T05:12:34;7.38;;;3.40;;
64816;SDS011;69411;45.656;11.740;2023-05-10T05:15:00;6.10;;;3.15;;
64816;SDS011;69411;45.656;11.740;2023-05-10T05:17:27;6.95;;;3.22;;
64816;SDS011;69411;45.656;11.740;2023-05-10T05:19:53;5.00;;;3.00;;
64816;SDS011;69411;45.656;11.740;2023-05-10T05:22:19;3.60;;;2.90;;
64816;SDS011;69411;45.656;11.740;2023-05-10T05:24:52;5.55;;;2.97;;
64816;SDS011;69411;45.656;11.740;2023-05-10T05:27:18;5.82;;;3.13;;
64816;SDS011;69411;45.656;11.740;2023-05-10T05:29:46;5.97;;;3.40;;
64816;SDS011;69411;45.656;11.740;2023-05-10T05:32:12;7.13;;;3.50;;
64816;SDS011;69411;45.656;11.740;2023-05-10T05:34:37;6.07;;;3.40;;
64816;SDS011;69411;45.656;11.740;2023-05-10T05:37:04;4.05;;;3.13;;
64816;SDS011;69411;45.656;11.740;2023-05-10T05:39:30;7.25;;;3.95;;
64816;SDS011;69411;45.656;11.740;2023-05-10T05:41:56;6.47;;;3.60;;
64816;SDS011;69411;45.656;11.740;2023-05-10T05:44:22;7.20;;;4.03;;
64816;SDS011;69411;45.656;11.740;2023-05-10T05:46:48;4.90;;;3.75;;
64816;SDS011;69411;45.656;11.740;2023-05-10T05:49:14;6.47;;;3.40;;
64816;SDS011;69411;45.656;11.740;2023-05-10T05:51:40;5.53;;;3.67;;
64816;SDS011;69411;45.656;11.740;2023-05-10T05:54:06;5.10;;;3.72;;
64816;SDS011;69411;45.656;11.740;2023-05-10T05:56:32;5.93;;;3.47;;
64816;SDS011;69411;45.656;11.740;2023-05-10T05:58:58;6.38;;;3.78;;
64816;SDS011;69411;45.656;11.740;2023-05-10T06:01:24;8.25;;;3.50;;
64816;SDS011;69411;45.656;11.740;2023-05-10T06:03:51;6.22;;;3.40;;
64816;SDS011;69411;45.656;11.740;2023-05-10T06:06:17;4.85;;;3.45;;
64816;SDS011;69411;45.656;11.740;2023-05-10T06:08:43;4.47;;;3.05;;
64816;SDS011;69411;45.656;11.740;2023-05-10T06:11:09;6.18;;;3.90;;
64816;SDS011;69411;45.656;11.740;2023-05-10T06:13:35;7.68;;;4.13;;
64816;SDS011;69411;45.656;11.740;2023-05-10T06:16:02;5.97;;;3.92;;
64816;SDS011;69411;45.656;11.740;2023-05-10T06:18:28;7.20;;;3.72;;
64816;SDS011;69411;45.656;11.740;2023-05-10T06:20:54;6.55;;;3.97;;
64816;SDS011;69411;45.656;11.740;2023-05-10T06:23:20;6.80;;;3.95;;
64816;SDS011;69411;45.656;11.740;2023-05-10T06:25:47;4.88;;;3.58;;
64816;SDS011;69411;45.656;11.740;2023-05-10T06:28:13;5.90;;;3.90;;
64816;SDS011;69411;45.656;11.740;2023-05-10T06:30:39;8.15;;;4.05;;
64816;SDS011;69411;45.656;11.740;2023-05-10T06:33:05;4.45;;;3.50;;
64816;SDS011;69411;45.656;11.740;2023-05-10T06:35:31;7.75;;;4.03;;
64816;SDS011;69411;45.656;11.740;2023-05-10T06:37:58;6.68;;;3.92;;
64816;SDS011;69411;45.656;11.740;2023-05-10T06:40:24;6.78;;;4.05;;
64816;SDS011;69411;45.656;11.740;2023-05-10T06:42:50;6.07;;;3.97;;
64816;SDS011;69411;45.656;11.740;2023-05-10T06:45:16;6.80;;;4.40;;
64816;SDS011;69411;45.656;11.740;2023-05-10T06:47:42;5.22;;;3.70;;
64816;SDS011;69411;45.656;11.740;2023-05-10T06:50:08;6.38;;;4.10;;
64816;SDS011;69411;45.656;11.740;2023-05-10T06:52:36;6.00;;;3.97;;
64816;SDS011;69411;45.656;11.740;2023-05-10T06:55:05;5.43;;;3.78;;
64816;SDS011;69411;45.656;11.740;2023-05-10T06:57:31;6.15;;;3.88;;
64816;SDS011;69411;45.656;11.740;2023-05-10T06:59:58;6.43;;;4.35;;
64816;SDS011;69411;45.656;11.740;2023-05-10T07:02:24;5.68;;;3.63;;
64816;SDS011;69411;45.656;11.740;2023-05-10T07:04:50;6.00;;;3.70;;
64816;SDS011;69411;45.656;11.740;2023-05-10T07:07:17;4.80;;;3.58;;
64816;SDS011;69411;45.656;11.740;2023-05-10T07:09:43;5.43;;;3.67;;
64816;SDS011;69411;45.656;11.740;2023-05-10T07:12:10;5.82;;;3.80;;
64816;SDS011;69411;45.656;11.740;2023-05-10T07:14:35;7.93;;;3.97;;
64816;SDS011;69411;45.656;11.740;2023-05-10T07:17:01;7.10;;;4.05;;
64816;SDS011;69411;45.656;11.740;2023-05-10T07:19:27;6.65;;;4.22;;
64816;SDS011;69411;45.656;11.740;2023-05-10T07:21:54;6.90;;;3.55;;
64816;SDS011;69411;45.656;11.740;2023-05-10T07:24:20;9.45;;;4.15;;
64816;SDS011;69411;45.656;11.740;2023-05-10T07:26:46;5.40;;;3.65;;
64816;SDS011;69411;45.656;11.740;2023-05-10T07:29:12;5.97;;;4.10;;
64816;SDS011;69411;45.656;11.740;2023-05-10T07:31:38;7.07;;;4.10;;
64816;SDS011;69411;45.656;11.740;2023-05-10T07:34:07;5.40;;;3.75;;
64816;SDS011;69411;45.656;11.740;2023-05-10T07:36:33;6.60;;;4.20;;
64816;SDS011;69411;45.656;11.740;2023-05-10T07:38:59;6.18;;;3.53;;
64816;SDS011;69411;45.656;11.740;2023-05-10T07:41:25;6.75;;;4.50;;
64816;SDS011;69411;45.656;11.740;2023-05-10T07:43:51;6.93;;;4.43;;
64816;SDS011;69411;45.656;11.740;2023-05-10T07:46:17;6.50;;;4.32;;
64816;SDS011;69411;45.656;11.740;2023-05-10T07:48:44;7.18;;;4.20;;
64816;SDS011;69411;45.656;11.740;2023-05-10T07:51:10;6.55;;;3.67;;
64816;SDS011;69411;45.656;11.740;2023-05-10T07:53:37;5.97;;;3.97;;
64816;SDS011;69411;45.656;11.740;2023-05-10T07:56:22;5.18;;;3.50;;
64816;SDS011;69411;45.656;11.740;2023-05-10T07:58:51;5.30;;;3.70;;
64816;SDS011;69411;45.656;11.740;2023-05-10T08:01:17;7.45;;;4.05;;
64816;SDS011;69411;45.656;11.740;2023-05-10T08:03:43;7.03;;;4.10;;
64816;SDS011;69411;45.656;11.740;2023-05-10T08:06:09;7.65;;;4.57;;
64816;SDS011;69411;45.656;11.740;2023-05-10T08:08:35;5.82;;;4.10;;
64816;SDS011;69411;45.656;11.740;2023-05-10T08:11:01;6.18;;;4.20;;
64816;SDS011;69411;45.656;11.740;2023-05-10T08:13:27;6.22;;;3.97;;
64816;SDS011;69411;45.656;11.740;2023-05-10T08:15:53;6.90;;;4.03;;
64816;SDS011;69411;45.656;11.740;2023-05-10T08:18:19;6.63;;;4.15;;
64816;SDS011;69411;45.656;11.740;2023-05-10T08:20:45;6.35;;;4.15;;
64816;SDS011;69411;45.656;11.740;2023-05-10T08:23:12;6.75;;;4.25;;
64816;SDS011;69411;45.656;11.740;2023-05-10T08:25:38;7.35;;;4.35;;
64816;SDS011;69411;45.656;11.740;2023-05-10T08:28:05;5.50;;;3.85;;
64816;SDS011;69411;45.656;11.740;2023-05-10T08:30:31;6.63;;;4.18;;
64816;SDS011;69411;45.656;11.740;2023-05-10T08:32:57;6.32;;;3.92;;
64816;SDS011;69411;45.656;11.740;2023-05-10T08:35:22;5.45;;;3.83;;
64816;SDS011;69411;45.656;11.740;2023-05-10T08:37:49;6.55;;;4.00;;
64816;SDS011;69411;45.656;11.740;2023-05-10T08:40:15;5.70;;;3.75;;
64816;SDS011;69411;45.656;11.740;2023-05-10T08:42:47;6.40;;;3.67;;
64816;SDS011;69411;45.656;11.740;2023-05-10T08:45:27;8.50;;;4.05;;
64816;SDS011;69411;45.656;11.740;2023-05-10T08:47:58;7.93;;;4.07;;
64816;SDS011;69411;45.656;11.740;2023-05-10T08:50:26;6.22;;;3.70;;
64816;SDS011;69411;45.656;11.740;2023-05-10T08:52:55;6.53;;;3.97;;
64816;SDS011;69411;45.656;11.740;2023-05-10T08:55:25;6.15;;;4.18;;
64816;SDS011;69411;45.656;11.740;2023-05-10T08:57:51;5.30;;;3.58;;
64816;SDS011;69411;45.656;11.740;2023-05-10T09:00:17;7.28;;;4.40;;
64816;SDS011;69411;45.656;11.740;2023-05-10T09:02:44;8.30;;;4.15;;
64816;SDS011;69411;45.656;11.740;2023-05-10T09:05:11;7.00;;;4.50;;
64816;SDS011;69411;45.656;11.740;2023-05-10T09:07:38;8.27;;;4.75;;
64816;SDS011;69411;45.656;11.740;2023-05-10T09:10:04;8.48;;;4.65;;
64816;SDS011;69411;45.656;11.740;2023-05-10T09:12:30;6.78;;;4.80;;
64816;SDS011;69411;45.656;11.740;2023-05-10T09:14:57;7.07;;;4.70;;
64816;SDS011;69411;45.656;11.740;2023-05-10T09:17:25;6.47;;;4.40;;
64816;SDS011;69411;45.656;11.740;2023-05-10T09:20:01;8.32;;;4.80;;
64816;SDS011;69411;45.656;11.740;2023-05-10T09:22:32;7.53;;;4.60;;
64816;SDS011;69411;45.656;11.740;2023-05-10T09:25:08;9.50;;;4.97;;
64816;SDS011;69411;45.656;11.740;2023-05-10T09:27:36;7.10;;;4.70;;
64816;SDS011;69411;45.656;11.740;2023-05-10T09:30:03;7.82;;;4.55;;
64816;SDS011;69411;45.656;11.740;2023-05-10T09:32:37;6.38;;;4.43;;
64816;SDS011;69411;45.656;11.740;2023-05-10T09:35:11;8.63;;;4.95;;
64816;SDS011;69411;45.656;11.740;2023-05-10T09:37:39;8.45;;;4.80;;
64816;SDS011;69411;45.656;11.740;2023-05-10T09:40:12;7.20;;;4.30;;
64816;SDS011;69411;45.656;11.740;2023-05-10T09:42:40;6.22;;;4.28;;
64816;SDS011;69411;45.656;11.740;2023-05-10T09:45:26;8.02;;;4.72;;
64816;SDS011;69411;45.656;11.740;2023-05-10T09:47:55;7.85;;;4.63;;
64816;SDS011;69411;45.656;11.740;2023-05-10T09:50:21;6.03;;;4.15;;
64816;SDS011;69411;45.656;11.740;2023-05-10T09:55:14;9.73;;;4.95;;
64816;SDS011;69411;45.656;11.740;2023-05-10T09:57:40;7.22;;;4.53;;
64816;SDS011;69411;45.656;11.740;2023-05-10T10:00:07;7.40;;;4.50;;
64816;SDS011;69411;45.656;11.740;2023-05-10T10:02:35;8.35;;;4.97;;
64816;SDS011;69411;45.656;11.740;2023-05-10T10:05:01;7.65;;;4.78;;
64816;SDS011;69411;45.656;11.740;2023-05-10T10:07:30;8.73;;;4.68;;
64816;SDS011;69411;45.656;11.740;2023-05-10T10:09:57;9.60;;;4.43;;
64816;SDS011;69411;45.656;11.740;2023-05-10T10:12:24;7.18;;;5.00;;
64816;SDS011;69411;45.656;11.740;2023-05-10T10:14:50;7.07;;;4.78;;
64816;SDS011;69411;45.656;11.740;2023-05-10T10:17:17;7.25;;;4.68;;
64816;SDS011;69411;45.656;11.740;2023-05-10T10:19:45;7.07;;;4.60;;
64816;SDS011;69411;45.656;11.740;2023-05-10T10:22:11;8.07;;;5.57;;
64816;SDS011;69411;45.656;11.740;2023-05-10T10:24:38;8.25;;;5.03;;
64816;SDS011;69411;45.656;11.740;2023-05-10T10:29:59;10.00;;;4.95;;
64816;SDS011;69411;45.656;11.740;2023-05-10T10:35:35;7.57;;;4.50;;
64816;SDS011;69411;45.656;11.740;2023-05-10T10:38:02;8.75;;;5.47;;
64816;SDS011;69411;45.656;11.740;2023-05-10T10:40:29;8.60;;;5.28;;
64816;SDS011;69411;45.656;11.740;2023-05-10T10:42:56;9.20;;;5.55;;
64816;SDS011;69411;45.656;11.740;2023-05-10T10:45:23;8.35;;;5.50;;
64816;SDS011;69411;45.656;11.740;2023-05-10T10:47:53;8.50;;;5.15;;
64816;SDS011;69411;45.656;11.740;2023-05-10T10:50:55;8.38;;;4.90;;
64816;SDS011;69411;45.656;11.740;2023-05-10T10:53:23;9.30;;;5.70;;
64816;SDS011;69411;45.656;11.740;2023-05-10T10:55:56;9.05;;;5.47;;
64816;SDS011;69411;45.656;11.740;2023-05-10T10:58:31;10.50;;;5.28;;
64816;SDS011;69411;45.656;11.740;2023-05-10T11:03:36;11.02;;;5.35;;
64816;SDS011;69411;45.656;11.740;2023-05-10T11:06:02;10.40;;;6.10;;
64816;SDS011;69411;45.656;11.740;2023-05-10T11:08:29;11.48;;;6.45;;
64816;SDS011;69411;45.656;11.740;2023-05-10T11:16:18;8.13;;;5.15;;
64816;SDS011;69411;45.656;11.740;2023-05-10T11:21:27;8.65;;;5.22;;
64816;SDS011;69411;45.656;11.740;2023-05-10T11:23:58;9.02;;;5.78;;
64816;SDS011;69411;45.656;11.740;2023-05-10T11:26:27;10.70;;;6.22;;
64816;SDS011;69411;45.656;11.740;2023-05-10T11:28:56;10.07;;;6.20;;
64816;SDS011;69411;45.656;11.740;2023-05-10T11:31:24;11.38;;;5.95;;
64816;SDS011;69411;45.656;11.740;2023-05-10T11:33:52;8.15;;;5.32;;
64816;SDS011;69411;45.656;11.740;2023-05-10T11:36:26;7.93;;;5.10;;
64816;SDS011;69411;45.656;11.740;2023-05-10T11:38:58;9.00;;;5.55;;
64816;SDS011;69411;45.656;11.740;2023-05-10T11:41:24;8.32;;;5.10;;
64816;SDS011;69411;45.656;11.740;2023-05-10T11:43:52;8.52;;;5.50;;
64816;SDS011;69411;45.656;11.740;2023-05-10T11:46:25;10.30;;;6.13;;
64816;SDS011;69411;45.656;11.740;2023-05-10T11:48:53;12.23;;;5.20;;
64816;SDS011;69411;45.656;11.740;2023-05-10T11:51:35;8.77;;;5.43;;
64816;SDS011;69411;45.656;11.740;2023-05-10T11:54:04;8.13;;;5.43;;
64816;SDS011;69411;45.656;11.740;2023-05-10T11:56:33;9.30;;;5.40;;
64816;SDS011;69411;45.656;11.740;2023-05-10T11:58:59;7.95;;;5.10;;
64816;SDS011;69411;45.656;11.740;2023-05-10T12:01:27;7.97;;;5.43;;
64816;SDS011;69411;45.656;11.740;2023-05-10T12:03:54;8.68;;;5.38;;
64816;SDS011;69411;45.656;11.740;2023-05-10T12:06:32;9.75;;;5.38;;
64816;SDS011;69411;45.656;11.740;2023-05-10T12:09:05;8.73;;;5.28;;
64816;SDS011;69411;45.656;11.740;2023-05-10T12:11:35;9.85;;;5.97;;
64816;SDS011;69411;45.656;11.740;2023-05-10T12:14:04;10.38;;;5.82;;
64816;SDS011;69411;45.656;11.740;2023-05-10T12:16:30;9.20;;;5.18;;
64816;SDS011;69411;45.656;11.740;2023-05-10T12:18:57;7.72;;;5.57;;
64816;SDS011;69411;45.656;11.740;2023-05-10T12:21:24;9.38;;;5.00;;
64816;SDS011;69411;45.656;11.740;2023-05-10T12:24:02;9.57;;;5.60;;
64816;SDS011;69411;45.656;11.740;2023-05-10T12:26:28;8.35;;;5.65;;
64816;SDS011;69411;45.656;11.740;2023-05-10T12:29:01;8.55;;;5.82;;
64816;SDS011;69411;45.656;11.740;2023-05-10T12:31:57;9.10;;;5.38;;
64816;SDS011;69411;45.656;11.740;2023-05-10T12:34:29;9.37;;;5.83;;
64816;SDS011;69411;45.656;11.740;2023-05-10T12:36:57;9.33;;;5.80;;
64816;SDS011;69411;45.656;11.740;2023-05-10T12:39:23;10.85;;;6.20;;
64816;SDS011;69411;45.656;11.740;2023-05-10T12:41:50;11.15;;;6.50;;
64816;SDS011;69411;45.656;11.740;2023-05-10T12:44:17;9.45;;;5.97;;
64816;SDS011;69411;45.656;11.740;2023-05-10T12:46:43;10.88;;;7.03;;
64816;SDS011;69411;45.656;11.740;2023-05-10T12:49:09;11.25;;;6.32;;
64816;SDS011;69411;45.656;11.740;2023-05-10T12:51:35;10.00;;;6.15;;
64816;SDS011;69411;45.656;11.740;2023-05-10T12:54:02;10.95;;;6.82;;
64816;SDS011;69411;45.656;11.740;2023-05-10T12:56:28;15.38;;;6.53;;
64816;SDS011;69411;45.656;11.740;2023-05-10T12:58:54;10.88;;;6.60;;
64816;SDS011;69411;45.656;11.740;2023-05-10T13:01:20;13.02;;;6.65;;
64816;SDS011;69411;45.656;11.740;2023-05-10T13:03:46;12.20;;;7.72;;
64816;SDS011;69411;45.656;11.740;2023-05-10T13:06:13;11.85;;;6.80;;
64816;SDS011;69411;45.656;11.740;2023-05-10T13:08:39;11.95;;;6.78;;
64816;SDS011;69411;45.656;11.740;2023-05-10T13:11:05;12.70;;;6.95;;
64816;SDS011;69411;45.656;11.740;2023-05-10T13:13:31;13.35;;;7.43;;
64816;SDS011;69411;45.656;11.740;2023-05-10T13:15:57;12.65;;;6.63;;
64816;SDS011;69411;45.656;11.740;2023-05-10T13:18:23;11.07;;;6.30;;
64816;SDS011;69411;45.656;11.740;2023-05-10T13:20:49;12.10;;;6.65;;
64816;SDS011;69411;45.656;11.740;2023-05-10T13:23:15;13.20;;;7.13;;
64816;SDS011;69411;45.656;11.740;2023-05-10T13:25:41;12.77;;;7.10;;
64816;SDS011;69411;45.656;11.740;2023-05-10T13:28:07;12.43;;;6.75;;
64816;SDS011;69411;45.656;11.740;2023-05-10T13:30:33;11.43;;;6.80;;
64816;SDS011;69411;45.656;11.740;2023-05-10T13:32:59;11.32;;;7.07;;
64816;SDS011;69411;45.656;11.740;2023-05-10T13:35:25;12.77;;;8.00;;
64816;SDS011;69411;45.656;11.740;2023-05-10T13:37:51;15.15;;;7.88;;
64816;SDS011;69411;45.656;11.740;2023-05-10T13:40:18;14.73;;;8.02;;
64816;SDS011;69411;45.656;11.740;2023-05-10T13:42:44;14.23;;;7.50;;
64816;SDS011;69411;45.656;11.740;2023-05-10T13:45:10;12.55;;;7.82;;
64816;SDS011;69411;45.656;11.740;2023-05-10T13:47:38;12.65;;;7.45;;
64816;SDS011;69411;45.656;11.740;2023-05-10T13:50:04;11.73;;;7.05;;
64816;SDS011;69411;45.656;11.740;2023-05-10T13:52:30;10.77;;;6.85;;
64816;SDS011;69411;45.656;11.740;2023-05-10T13:54:56;11.75;;;7.28;;
64816;SDS011;69411;45.656;11.740;2023-05-10T13:57:23;12.20;;;7.32;;
64816;SDS011;69411;45.656;11.740;2023-05-10T13:59:49;13.57;;;8.00;;
64816;SDS011;69411;45.656;11.740;2023-05-10T14:02:15;12.80;;;7.15;;
64816;SDS011;69411;45.656;11.740;2023-05-10T14:04:41;13.00;;;7.20;;
64816;SDS011;69411;45.656;11.740;2023-05-10T14:07:07;12.75;;;6.80;;
64816;SDS011;69411;45.656;11.740;2023-05-10T14:09:33;11.55;;;7.28;;
64816;SDS011;69411;45.656;11.740;2023-05-10T14:11:59;11.85;;;7.18;;
64816;SDS011;69411;45.656;11.740;2023-05-10T14:14:24;13.18;;;8.07;;
64816;SDS011;69411;45.656;11.740;2023-05-10T14:16:51;13.40;;;7.82;;
64816;SDS011;69411;45.656;11.740;2023-05-10T14:19:17;13.27;;;7.50;;
64816;SDS011;69411;45.656;11.740;2023-05-10T14:21:43;12.45;;;7.07;;
64816;SDS011;69411;45.656;11.740;2023-05-10T14:24:09;11.40;;;7.38;;
64816;SDS011;69411;45.656;11.740;2023-05-10T14:26:35;14.05;;;8.70;;
64816;SDS011;69411;45.656;11.740;2023-05-10T14:29:01;14.00;;;7.93;;
64816;SDS011;69411;45.656;11.740;2023-05-10T14:31:27;9.38;;;6.63;;
64816;SDS011;69411;45.656;11.740;2023-05-10T14:33:55;11.18;;;7.45;;
64816;SDS011;69411;45.656;11.740;2023-05-10T14:36:22;11.88;;;7.13;;
64816;SDS011;69411;45.656;11.740;2023-05-10T14:38:48;11.70;;;7.15;;
64816;SDS011;69411;45.656;11.740;2023-05-10T14:41:15;11.30;;;7.13;;
64816;SDS011;69411;45.656;11.740;2023-05-10T14:43:42;10.63;;;6.95;;
64816;SDS011;69411;45.656;11.740;2023-05-10T14:46:08;12.25;;;7.15;;
64816;SDS011;69411;45.656;11.740;2023-05-10T14:48:35;11.52;;;7.47;;
64816;SDS011;69411;45.656;11.740;2023-05-10T14:51:01;12.00;;;7.53;;
64816;SDS011;69411;45.656;11.740;2023-05-10T14:53:27;12.43;;;7.22;;
64816;SDS011;69411;45.656;11.740;2023-05-10T14:55:53;11.45;;;7.57;;
64816;SDS011;69411;45.656;11.740;2023-05-10T14:58:19;11.95;;;7.47;;
64816;SDS011;69411;45.656;11.740;2023-05-10T15:00:45;12.88;;;8.10;;
64816;SDS011;69411;45.656;11.740;2023-05-10T15:03:12;12.85;;;8.43;;
64816;SDS011;69411;45.656;11.740;2023-05-10T15:05:37;13.13;;;7.35;;
64816;SDS011;69411;45.656;11.740;2023-05-10T15:08:04;13.88;;;8.32;;
64816;SDS011;69411;45.656;11.740;2023-05-10T15:10:31;12.13;;;7.75;;
64816;SDS011;69411;45.656;11.740;2023-05-10T15:12:57;12.38;;;7.63;;
64816;SDS011;69411;45.656;11.740;2023-05-10T15:15:24;13.85;;;8.70;;